createdAt,value
2018-11-01T00:00:59.804Z,34.10
2018-11-01T00:03:39.487Z,34.10
2018-11-01T00:06:11.630Z,34.10
2018-11-01T00:08:42.238Z,34.10
2018-11-01T00:11:13.560Z,34.10
2018-11-01T00:13:44.260Z,34.10
2018-11-01T00:16:13.969Z,34.10
2018-11-01T00:18:46.197Z,34.10
2018-11-01T00:21:16.499Z,34.10
2018-11-01T00:23:46.082Z,34.10
2018-11-01T00:26:15.731Z,34.10
2018-11-01T00:28:46.254Z,34.10
2018-11-01T00:31:16.088Z,34.10
2018-11-01T00:33:45.513Z,34.10
2018-11-01T00:36:15.127Z,34.10
2018-11-01T00:38:44.775Z,34.10
2018-11-01T00:41:14.752Z,34.10
2018-11-01T00:43:44.674Z,34.10
2018-11-01T00:46:15.255Z,34.10
2018-11-01T00:48:45.645Z,34.10
2018-11-01T00:51:15.336Z,34.10
2018-11-01T00:53:51.169Z,34.10
2018-11-01T00:56:20.804Z,34.20
2018-11-01T00:58:50.883Z,34.40
2018-11-01T01:01:20.967Z,34.40
2018-11-01T01:03:50.568Z,34.40
2018-11-01T01:06:20.038Z,34.20
2018-11-01T01:08:49.774Z,34.40
2018-11-01T01:11:19.746Z,34.40
2018-11-01T01:13:49.497Z,34.20
2018-11-01T01:16:19.394Z,34.40
2018-11-01T01:18:49.511Z,34.40
2018-11-01T01:21:18.914Z,34.40
2018-11-01T01:23:48.753Z,34.40
2018-11-01T01:26:18.417Z,34.40
2018-11-01T01:28:48.222Z,34.20
2018-11-01T01:31:17.945Z,34.40
2018-11-01T01:33:48.949Z,34.40
2018-11-01T01:36:18.447Z,34.40
2018-11-01T01:38:48.008Z,34.40
2018-11-01T01:41:17.513Z,34.40
2018-11-01T01:43:46.971Z,34.20
2018-11-01T01:46:16.723Z,34.40
2018-11-01T01:48:46.478Z,34.40
2018-11-01T01:51:15.847Z,34.20
2018-11-01T01:53:45.337Z,34.40
2018-11-01T01:56:14.897Z,34.40
2018-11-01T01:58:44.048Z,34.40
2018-11-01T02:01:13.263Z,34.40
2018-11-01T02:03:42.795Z,34.40
2018-11-01T02:06:13.158Z,34.20
2018-11-01T02:08:42.675Z,34.40
2018-11-01T02:11:11.855Z,34.40
2018-11-01T02:13:41.380Z,34.40
2018-11-01T02:16:10.754Z,34.20
2018-11-01T02:18:40.291Z,34.40
2018-11-01T02:21:10.138Z,34.40
2018-11-01T02:23:39.811Z,34.20
2018-11-01T02:26:09.771Z,34.50
2018-11-01T02:28:40.428Z,34.50
2018-11-01T02:31:10.021Z,34.40
2018-11-01T02:33:39.783Z,34.40
2018-11-01T02:36:09.473Z,34.40
2018-11-01T02:38:39.328Z,34.40
2018-11-01T02:41:08.807Z,34.40
2018-11-01T02:43:38.436Z,34.40
2018-11-01T02:46:08.349Z,34.40
2018-11-01T02:48:37.785Z,34.50
2018-11-01T02:51:07.465Z,34.40
2018-11-01T02:53:37.090Z,34.40
2018-11-01T02:56:06.481Z,34.40
2018-11-01T02:58:36.309Z,34.40
2018-11-01T03:01:05.697Z,34.40
2018-11-01T03:03:35.368Z,34.40
2018-11-01T03:06:05.189Z,34.40
2018-11-01T03:08:34.828Z,34.40
2018-11-01T03:11:04.410Z,34.50
2018-11-01T03:13:33.716Z,34.40
2018-11-01T03:16:03.499Z,34.40
2018-11-01T03:18:32.985Z,34.40
2018-11-01T03:21:02.850Z,34.40
2018-11-01T03:23:32.823Z,34.40
2018-11-01T03:26:02.734Z,34.40
2018-11-01T03:28:32.544Z,34.40
2018-11-01T03:31:01.985Z,34.50
2018-11-01T03:33:31.540Z,34.40
2018-11-01T03:36:01.469Z,34.40
2018-11-01T03:38:31.448Z,34.40
2018-11-01T03:41:01.737Z,34.50
2018-11-01T03:43:31.685Z,34.40
2018-11-01T03:46:01.416Z,34.40
2018-11-01T03:48:30.990Z,34.50
2018-11-01T03:51:00.561Z,34.40
2018-11-01T03:53:30.281Z,34.40
2018-11-01T03:55:59.903Z,34.40
2018-11-01T03:58:29.291Z,34.40
2018-11-01T04:01:01.343Z,34.40
2018-11-01T04:03:32.574Z,34.50
2018-11-01T04:06:02.132Z,34.50
2018-11-01T04:08:31.683Z,34.50
2018-11-01T04:11:01.036Z,34.50
2018-11-01T04:13:30.703Z,34.50
2018-11-01T04:16:00.991Z,34.50
2018-11-01T04:18:31.364Z,34.50
2018-11-01T04:21:01.020Z,34.50
2018-11-01T04:23:30.762Z,34.50
2018-11-01T04:26:00.254Z,34.50
2018-11-01T04:28:29.883Z,34.70
2018-11-01T04:30:59.645Z,34.50
2018-11-01T04:33:29.451Z,34.50
2018-11-01T04:35:59.273Z,34.50
2018-11-01T04:38:29.561Z,34.70
2018-11-01T04:40:58.930Z,34.70
2018-11-01T04:43:29.156Z,34.80
2018-11-01T04:45:59.025Z,34.80
2018-11-01T04:48:28.594Z,34.80
2018-11-01T04:50:59.137Z,34.80
2018-11-01T04:53:32.696Z,34.80
2018-11-01T04:56:02.162Z,34.80
2018-11-01T04:58:31.083Z,34.80
2018-11-01T05:01:00.307Z,34.80
2018-11-01T05:03:29.504Z,34.80
2018-11-01T05:05:58.875Z,35.00
2018-11-01T05:08:27.808Z,34.80
2018-11-01T05:10:57.279Z,34.80
2018-11-01T05:13:26.183Z,34.80
2018-11-01T05:15:58.205Z,34.80
2018-11-01T05:18:27.160Z,35.00
2018-11-01T05:20:56.291Z,34.80
2018-11-01T05:23:25.203Z,34.80
2018-11-01T05:25:54.175Z,35.00
2018-11-01T05:28:23.006Z,35.00
2018-11-01T05:30:52.024Z,35.00
2018-11-01T05:33:20.943Z,35.00
2018-11-01T05:35:50.140Z,35.00
2018-11-01T05:38:19.309Z,35.00
2018-11-01T05:40:48.237Z,35.00
2018-11-01T05:43:23.158Z,35.00
2018-11-01T05:45:52.116Z,35.00
2018-11-01T05:48:21.271Z,35.00
2018-11-01T05:50:50.331Z,35.00
2018-11-01T05:53:19.571Z,35.00
2018-11-01T05:55:48.507Z,35.00
2018-11-01T05:58:17.532Z,35.00
2018-11-01T06:00:49.516Z,35.00
2018-11-01T06:03:21.980Z,35.00
2018-11-01T06:05:52.596Z,35.10
2018-11-01T06:08:29.162Z,35.00
2018-11-01T06:10:58.812Z,35.00
2018-11-01T06:13:29.997Z,35.10
2018-11-01T06:16:05.813Z,35.10
2018-11-01T06:18:37.217Z,35.10
2018-11-01T06:21:07.206Z,35.10
2018-11-01T06:23:40.819Z,35.10
2018-11-01T06:26:22.009Z,35.30
2018-11-01T06:28:59.365Z,35.30
2018-11-01T06:31:30.164Z,35.30
2018-11-01T06:34:19.584Z,35.10
2018-11-01T06:36:51.866Z,35.10
2018-11-01T06:39:30.234Z,35.30
2018-11-01T06:42:03.295Z,35.30
2018-11-01T06:44:34.968Z,35.30
2018-11-01T06:47:05.015Z,35.30
2018-11-01T06:49:35.292Z,35.10
2018-11-01T06:52:07.518Z,35.10
2018-11-01T06:54:48.374Z,35.10
2018-11-01T06:57:18.290Z,35.10
2018-11-01T06:59:49.138Z,35.10
2018-11-01T07:02:20.665Z,35.10
2018-11-01T07:04:50.698Z,35.00
2018-11-01T07:07:20.347Z,35.10
2018-11-01T07:09:49.868Z,35.00
2018-11-01T07:12:19.407Z,35.00
2018-11-01T07:14:49.678Z,34.80
2018-11-01T07:17:19.826Z,35.00
2018-11-01T07:19:51.848Z,34.70
2018-11-01T07:22:22.159Z,34.70
2018-11-01T07:24:52.082Z,34.70
2018-11-01T07:27:21.507Z,34.70
2018-11-01T07:29:51.672Z,34.70
2018-11-01T07:32:22.499Z,34.70
2018-11-01T07:34:53.477Z,34.50
2018-11-01T07:37:24.560Z,34.70
2018-11-01T07:39:54.386Z,34.50
2018-11-01T07:42:54.292Z,34.70
2018-11-01T07:45:23.717Z,34.50
2018-11-01T07:47:53.131Z,34.80
2018-11-01T07:50:22.999Z,38.80
2018-11-01T07:52:53.143Z,38.70
2018-11-01T07:55:22.069Z,39.10
2018-11-01T07:57:51.144Z,38.50
2018-11-01T08:00:20.962Z,38.10
2018-11-01T08:02:52.303Z,37.60
2018-11-01T08:05:25.331Z,37.40
2018-11-01T08:07:55.208Z,36.90
2018-11-01T08:10:24.378Z,36.80
2018-11-01T08:12:53.510Z,36.30
2018-11-01T08:15:22.628Z,36.20
2018-11-01T08:17:51.603Z,36.00
2018-11-01T08:20:20.639Z,35.90
2018-11-01T08:22:49.438Z,35.90
2018-11-01T08:25:18.951Z,35.70
2018-11-01T08:27:47.946Z,35.60
2018-11-01T08:30:18.030Z,35.60
2018-11-01T08:32:47.084Z,35.40
2018-11-01T08:35:16.127Z,35.10
2018-11-01T08:37:45.953Z,35.10
2018-11-01T08:40:15.149Z,35.00
2018-11-01T08:42:44.749Z,35.00
2018-11-01T08:45:15.566Z,34.80
2018-11-01T08:47:47.143Z,35.00
2018-11-01T08:50:17.476Z,35.00
2018-11-01T08:52:49.291Z,35.00
2018-11-01T08:55:18.608Z,35.00
2018-11-01T08:57:47.779Z,35.00
2018-11-01T09:00:16.755Z,35.00
2018-11-01T09:02:45.718Z,35.00
2018-11-01T09:05:14.935Z,34.80
2018-11-01T09:07:44.015Z,34.70
2018-11-01T09:10:17.010Z,34.80
2018-11-01T09:12:46.287Z,34.80
2018-11-01T09:15:16.762Z,34.80
2018-11-01T09:17:46.008Z,34.80
2018-11-01T09:20:15.425Z,34.70
2018-11-01T09:22:44.515Z,34.40
2018-11-01T09:25:13.432Z,34.40
2018-11-01T09:27:42.553Z,33.80
2018-11-01T09:30:13.470Z,33.10
2018-11-01T09:32:43.515Z,32.00
2018-11-01T09:35:13.041Z,31.10
2018-11-01T09:37:42.817Z,30.30
2018-11-01T09:40:13.180Z,29.60
2018-11-01T09:42:43.222Z,28.90
2018-11-01T09:45:12.400Z,28.40
2018-11-01T09:47:42.471Z,27.80
2018-11-01T09:50:11.706Z,27.40
2018-11-01T09:52:40.708Z,26.90
2018-11-01T09:55:09.627Z,26.50
2018-11-01T09:57:38.683Z,26.20
2018-11-01T10:00:09.633Z,26.10
2018-11-01T10:02:39.330Z,25.90
2018-11-01T10:05:09.174Z,25.80
2018-11-01T10:07:39.375Z,25.80
2018-11-01T10:10:10.102Z,25.90
2018-11-01T10:12:39.579Z,25.90
2018-11-01T10:15:09.430Z,25.90
2018-11-01T10:17:39.003Z,26.00
2018-11-01T10:20:09.119Z,26.00
2018-11-01T10:22:38.483Z,26.10
2018-11-01T10:25:08.103Z,26.10
2018-11-01T10:27:37.651Z,26.10
2018-11-01T10:30:09.787Z,26.20
2018-11-01T10:32:38.779Z,26.40
2018-11-01T10:35:08.038Z,26.60
2018-11-01T10:37:37.933Z,26.70
2018-11-01T10:40:08.784Z,26.60
2018-11-01T10:42:38.320Z,26.40
2018-11-01T10:45:08.520Z,26.10
2018-11-01T10:47:39.394Z,25.90
2018-11-01T10:50:12.005Z,25.50
2018-11-01T10:52:41.775Z,25.30
2018-11-01T10:55:12.548Z,25.20
2018-11-01T10:57:42.481Z,25.10
2018-11-01T11:00:19.875Z,25.00
2018-11-01T11:02:51.241Z,25.00
2018-11-01T11:05:23.096Z,25.10
2018-11-01T11:07:53.672Z,25.20
2018-11-01T11:10:23.913Z,25.20
2018-11-01T11:12:53.871Z,25.30
2018-11-01T11:15:23.970Z,25.30
2018-11-01T11:17:55.195Z,25.30
2018-11-01T11:20:27.246Z,25.50
2018-11-01T11:22:57.231Z,25.60
2018-11-01T11:25:26.833Z,25.80
2018-11-01T11:27:56.671Z,25.90
2018-11-01T11:30:27.227Z,26.20
2018-11-01T11:32:56.758Z,26.40
2018-11-01T11:35:26.554Z,26.60
2018-11-01T11:37:56.351Z,26.80
2018-11-01T11:40:25.947Z,27.00
2018-11-01T11:42:56.149Z,27.30
2018-11-01T11:45:25.889Z,27.50
2018-11-01T11:47:56.115Z,27.60
2018-11-01T11:50:26.333Z,27.80
2018-11-01T11:52:56.176Z,28.00
2018-11-01T11:55:26.709Z,28.10
2018-11-01T11:57:56.697Z,28.30
2018-11-01T12:00:26.777Z,28.60
2018-11-01T12:02:57.015Z,28.70
2018-11-01T12:05:28.540Z,28.90
2018-11-01T12:07:58.990Z,29.00
2018-11-01T12:10:29.088Z,29.10
2018-11-01T12:12:58.714Z,29.20
2018-11-01T12:15:28.721Z,29.30
2018-11-01T12:17:59.152Z,29.50
2018-11-01T12:20:29.148Z,29.60
2018-11-01T12:22:58.788Z,29.80
2018-11-01T12:25:27.977Z,29.80
2018-11-01T12:27:57.317Z,29.80
2018-11-01T12:30:27.683Z,30.10
2018-11-01T12:32:57.580Z,30.30
2018-11-01T12:35:27.905Z,30.40
2018-11-01T12:37:57.938Z,30.60
2018-11-01T12:40:27.921Z,30.70
2018-11-01T12:42:58.198Z,30.80
2018-11-01T12:45:27.948Z,31.00
2018-11-01T12:47:57.886Z,31.00
2018-11-01T12:50:28.495Z,31.10
2018-11-01T12:52:58.385Z,31.10
2018-11-01T12:55:28.423Z,31.30
2018-11-01T12:57:58.000Z,31.40
2018-11-01T13:00:28.393Z,31.60
2018-11-01T13:02:58.443Z,31.70
2018-11-01T13:05:28.726Z,31.70
2018-11-01T13:07:57.790Z,31.90
2018-11-01T13:10:27.532Z,31.90
2018-11-01T13:12:57.576Z,32.00
2018-11-01T13:15:27.772Z,32.20
2018-11-01T13:17:58.311Z,32.30
2018-11-01T13:20:28.263Z,32.50
2018-11-01T13:22:58.233Z,32.50
2018-11-01T13:25:28.022Z,32.60
2018-11-01T13:27:58.277Z,32.60
2018-11-01T13:30:28.697Z,32.80
2018-11-01T13:32:58.746Z,32.80
2018-11-01T13:35:28.810Z,32.90
2018-11-01T13:37:57.803Z,32.90
2018-11-01T13:40:29.608Z,32.90
2018-11-01T13:42:58.479Z,33.10
2018-11-01T13:45:28.872Z,33.10
2018-11-01T13:47:57.903Z,33.20
2018-11-01T13:50:27.380Z,33.20
2018-11-01T13:52:56.766Z,33.40
2018-11-01T13:55:25.916Z,33.40
2018-11-01T13:57:54.795Z,33.40
2018-11-01T14:00:23.887Z,33.40
2018-11-01T14:02:52.928Z,33.50
2018-11-01T14:05:21.807Z,33.50
2018-11-01T14:07:50.731Z,33.70
2018-11-01T14:10:20.443Z,33.70
2018-11-01T14:12:49.642Z,33.70
2018-11-01T14:15:18.932Z,34.00
2018-11-01T14:17:47.975Z,34.00
2018-11-01T14:20:17.127Z,34.00
2018-11-01T14:22:46.073Z,34.10
2018-11-01T14:25:14.987Z,34.10
2018-11-01T14:27:44.203Z,34.10
2018-11-01T14:30:15.249Z,34.10
2018-11-01T14:32:44.348Z,34.20
2018-11-01T14:35:13.289Z,34.20
2018-11-01T14:37:42.259Z,34.40
2018-11-01T14:40:12.644Z,34.40
2018-11-01T14:42:41.875Z,34.50
2018-11-01T14:45:11.035Z,34.50
2018-11-01T14:47:40.482Z,34.50
2018-11-01T14:50:10.479Z,34.70
2018-11-01T14:52:40.483Z,34.70
2018-11-01T14:55:10.074Z,34.70
2018-11-01T14:57:39.772Z,34.70
2018-11-01T15:00:08.073Z,34.80
2018-11-01T15:02:37.152Z,34.80
2018-11-01T15:05:06.502Z,34.80
2018-11-01T15:07:35.387Z,34.80
2018-11-01T15:10:04.621Z,35.00
2018-11-01T15:12:34.110Z,35.00
2018-11-01T15:15:03.566Z,35.00
2018-11-01T15:17:32.467Z,35.10
2018-11-01T15:20:02.104Z,35.10
2018-11-01T15:22:31.015Z,35.30
2018-11-01T15:25:00.156Z,35.30
2018-11-01T15:27:29.660Z,35.30
2018-11-01T15:29:58.804Z,35.30
2018-11-01T15:32:28.782Z,35.30
2018-11-01T15:34:59.153Z,35.30
2018-11-01T15:37:30.062Z,35.30
2018-11-01T15:40:00.117Z,35.60
2018-11-01T15:42:29.899Z,35.60
2018-11-01T15:44:59.867Z,35.60
2018-11-01T15:47:29.595Z,35.60
2018-11-01T15:49:58.669Z,35.60
2018-11-01T15:52:28.005Z,35.60
2018-11-01T15:54:57.426Z,35.70
2018-11-01T15:57:28.088Z,35.70
2018-11-01T15:59:59.317Z,35.70
2018-11-01T16:02:28.969Z,35.70
2018-11-01T16:04:59.121Z,35.90
2018-11-01T16:07:29.488Z,35.90
2018-11-01T16:10:00.061Z,35.90
2018-11-01T16:12:30.274Z,35.90
2018-11-01T16:15:01.232Z,36.00
2018-11-01T16:17:31.460Z,36.00
2018-11-01T16:20:01.416Z,36.00
2018-11-01T16:22:31.993Z,36.00
2018-11-01T16:25:01.274Z,36.00
2018-11-01T16:27:31.805Z,36.00
2018-11-01T16:30:12.023Z,36.20
2018-11-01T16:32:41.218Z,36.20
2018-11-01T16:35:11.478Z,36.20
2018-11-01T16:37:41.069Z,36.20
2018-11-01T16:40:11.208Z,36.20
2018-11-01T16:42:40.463Z,36.20
2018-11-01T16:45:12.307Z,36.30
2018-11-01T16:47:41.227Z,36.30
2018-11-01T16:50:11.022Z,36.30
2018-11-01T16:52:41.207Z,36.50
2018-11-01T16:55:10.556Z,36.50
2018-11-01T16:57:39.896Z,36.50
2018-11-01T17:00:10.988Z,36.50
2018-11-01T17:02:40.540Z,36.50
2018-11-01T17:05:10.342Z,36.60
2018-11-01T17:07:39.786Z,36.60
2018-11-01T17:10:12.213Z,36.80
2018-11-01T17:12:42.000Z,36.60
2018-11-01T17:15:12.973Z,36.80
2018-11-01T17:17:42.247Z,36.80
2018-11-01T17:20:11.518Z,36.80
2018-11-01T17:22:42.418Z,36.80
2018-11-01T17:25:11.726Z,36.80
2018-11-01T17:27:40.885Z,36.90
2018-11-01T17:30:10.186Z,36.90
2018-11-01T17:32:45.867Z,37.10
2018-11-01T17:35:15.267Z,37.10
2018-11-01T17:37:44.248Z,37.20
2018-11-01T17:40:13.352Z,37.10
2018-11-01T17:42:44.481Z,37.20
2018-11-01T17:45:13.442Z,37.20
2018-11-01T17:47:42.916Z,37.20
2018-11-01T17:50:13.595Z,37.20
2018-11-01T17:52:43.013Z,37.40
2018-11-01T17:55:12.658Z,37.40
2018-11-01T17:57:43.038Z,37.40
2018-11-01T18:00:13.151Z,37.40
2018-11-01T18:02:42.555Z,37.40
2018-11-01T18:05:12.811Z,37.40
2018-11-01T18:07:41.993Z,37.50
2018-11-01T18:10:12.299Z,37.50
2018-11-01T18:12:41.629Z,37.60
2018-11-01T18:15:10.679Z,37.60
2018-11-01T18:17:39.584Z,37.50
2018-11-01T18:20:10.051Z,37.60
2018-11-01T18:22:39.246Z,37.60
2018-11-01T18:25:09.503Z,37.60
2018-11-01T18:27:38.488Z,37.60
2018-11-01T18:30:09.694Z,37.60
2018-11-01T18:32:38.860Z,37.80
2018-11-01T18:35:08.679Z,37.80
2018-11-01T18:37:37.863Z,37.80
2018-11-01T18:40:08.076Z,37.80
2018-11-01T18:42:37.283Z,37.90
2018-11-01T18:45:07.927Z,37.90
2018-11-01T18:47:37.420Z,37.90
2018-11-01T18:50:07.454Z,37.90
2018-11-01T18:52:36.931Z,38.10
2018-11-01T18:55:07.139Z,38.20
2018-11-01T18:57:36.756Z,38.20
2018-11-01T19:00:08.598Z,38.20
2018-11-01T19:02:37.695Z,38.20
2018-11-01T19:05:07.584Z,38.20
2018-11-01T19:07:36.651Z,38.20
2018-11-01T19:10:06.691Z,38.20
2018-11-01T19:12:35.623Z,38.10
2018-11-01T19:15:05.675Z,38.10
2018-11-01T19:17:35.551Z,38.20
2018-11-01T19:20:06.031Z,38.20
2018-11-01T19:22:35.133Z,38.20
2018-11-01T19:25:04.300Z,38.20
2018-11-01T19:27:33.456Z,38.20
2018-11-01T19:30:02.250Z,38.20
2018-11-01T19:32:31.183Z,38.20
2018-11-01T19:35:00.131Z,38.20
2018-11-01T19:37:29.851Z,38.20
2018-11-01T19:39:59.389Z,38.40
2018-11-01T19:42:28.515Z,38.20
2018-11-01T19:44:57.443Z,38.40
2018-11-01T19:47:26.431Z,38.40
2018-11-01T19:49:55.571Z,38.40
2018-11-01T19:52:27.737Z,38.40
2018-11-01T19:54:57.069Z,38.40
2018-11-01T19:57:26.597Z,38.40
2018-11-01T19:59:55.638Z,38.40
2018-11-01T20:02:25.104Z,38.40
2018-11-01T20:04:54.297Z,38.40
2018-11-01T20:07:23.839Z,38.40
2018-11-01T20:09:53.061Z,38.40
2018-11-01T20:12:22.220Z,38.50
2018-11-01T20:15:12.716Z,38.40
2018-11-01T20:17:42.631Z,38.50
2018-11-01T20:20:13.364Z,38.50
2018-11-01T20:22:43.950Z,38.70
2018-11-01T20:25:14.494Z,38.70
2018-11-01T20:27:44.818Z,38.70
2018-11-01T20:30:15.579Z,38.80
2018-11-01T20:32:45.651Z,38.80
2018-11-01T20:35:18.476Z,38.80
2018-11-01T20:37:47.831Z,38.80
2018-11-01T20:40:17.028Z,38.80
2018-11-01T20:42:46.726Z,38.80
2018-11-01T20:45:21.594Z,38.70
2018-11-01T20:47:54.189Z,38.70
2018-11-01T20:50:26.474Z,38.80
2018-11-01T20:52:55.829Z,38.80
2018-11-01T20:55:29.558Z,38.70
2018-11-01T20:58:00.036Z,38.70
2018-11-01T21:00:30.208Z,38.80
2018-11-01T21:03:03.658Z,38.80
2018-11-01T21:05:41.548Z,38.70
2018-11-01T21:08:17.500Z,38.80
2018-11-01T21:10:48.404Z,38.70
2018-11-01T21:13:20.548Z,38.70
2018-11-01T21:15:55.304Z,38.80
2018-11-01T21:18:29.538Z,38.80
2018-11-01T21:20:59.795Z,38.80
2018-11-01T21:23:28.943Z,38.80
2018-11-01T21:25:58.291Z,38.80
2018-11-01T21:28:29.244Z,38.80
2018-11-01T21:31:05.966Z,38.80
2018-11-01T21:33:36.317Z,38.80
2018-11-01T21:36:05.901Z,38.80
2018-11-01T21:38:34.832Z,38.80
2018-11-01T21:41:05.486Z,38.80
2018-11-01T21:43:34.555Z,38.80
2018-11-01T21:46:03.893Z,38.80
2018-11-01T21:49:03.991Z,38.80
2018-11-01T21:54:14.142Z,39.00
2018-11-01T21:56:44.729Z,39.00
2018-11-01T21:59:14.663Z,38.80
2018-11-01T22:01:43.733Z,38.80
2018-11-01T22:04:14.531Z,38.80
2018-11-01T22:06:45.066Z,38.70
2018-11-01T22:09:14.618Z,38.70
2018-11-01T22:11:44.997Z,38.70
2018-11-01T22:14:37.860Z,38.80
2018-11-01T22:17:09.027Z,38.80
2018-11-01T22:19:38.175Z,38.80
2018-11-01T22:22:07.392Z,38.80
2018-11-01T22:24:38.172Z,38.80
2018-11-01T22:27:07.281Z,38.80
2018-11-01T22:29:36.438Z,38.80
2018-11-01T22:32:06.039Z,38.80
2018-11-01T22:34:35.176Z,38.80
2018-11-01T22:37:04.247Z,38.80
2018-11-01T22:39:33.299Z,38.80
2018-11-01T22:42:06.489Z,38.80
2018-11-01T22:44:35.930Z,38.80
2018-11-01T22:47:05.931Z,38.80
2018-11-01T22:49:35.160Z,38.80
2018-11-01T22:52:04.186Z,38.80
2018-11-01T22:54:33.307Z,38.80
2018-11-01T22:57:02.408Z,38.80
2018-11-01T22:59:31.432Z,38.80
2018-11-01T23:02:01.574Z,38.80
2018-11-01T23:04:32.142Z,38.80
2018-11-01T23:07:01.357Z,38.80
2018-11-01T23:09:33.462Z,38.80
2018-11-01T23:12:04.443Z,38.80
2018-11-01T23:14:33.759Z,38.80
2018-11-01T23:17:03.186Z,38.80
2018-11-01T23:19:32.230Z,38.80
2018-11-01T23:22:01.728Z,38.80
2018-11-01T23:24:31.064Z,38.80
2018-11-01T23:27:00.423Z,38.80
2018-11-01T23:29:30.159Z,38.80
2018-11-01T23:31:59.397Z,39.00
2018-11-01T23:34:30.109Z,38.80
2018-11-01T23:37:05.842Z,38.80
2018-11-01T23:39:41.967Z,38.80
2018-11-01T23:42:18.192Z,38.80
2018-11-01T23:44:54.341Z,39.00
2018-11-01T23:47:30.172Z,38.80
2018-11-01T23:50:04.951Z,39.00
2018-11-01T23:52:35.099Z,39.00
2018-11-01T23:55:08.922Z,39.00
2018-11-01T23:57:41.170Z,39.00
